This is the latest recevied weather packets stored in our database for station/object KJ4HF. If no packets are shown the sender has not sent any weather packets the latest 10 day(s).
| Time | Temp. | Humidity | Pressure | Rain* | Wind** | Luminosity | Snow |
|---|---|---|---|---|---|---|---|
| 1777702555 | 11.11° C | 87% | 1012.3 hPa | 0 mm | - | 0 W/m² | - |
| 1777702244 | 11.11° C | 87% | 1012.3 hPa | 0 mm | - | 0 W/m² | - |
| 1777701942 | 11.11° C | 87% | 1012.4 hPa | 0 mm | - | 0 W/m² | - |
| 1777701667 | 11.11° C | 87% | 1012.4 hPa | 0 mm | - | 0 W/m² | - |
| 1777695045 | 10.56° C | 86% | 1012.9 hPa | 0 mm | - | 0 W/m² | - |
| 1777693244 | 10.56° C | 85% | 1013 hPa | 0 mm | - | 0 W/m² | - |
| 1777690242 | 11.11° C | 82% | 1013.3 hPa | 0 mm | - | 0 W/m² | - |
| 1777687842 | 11.11° C | 81% | 1013.3 hPa | 0 mm | - | 0 W/m² | - |
| 1777686043 | 11.67° C | 78% | 1013.3 hPa | 0 mm | - | 0 W/m² | - |
| 1777683657 | 12.78° C | 73% | 1013.3 hPa | 0 mm | - | 0 W/m² | - |
| 1777680342 | 13.89° C | 70% | 1012.4 hPa | 0 mm | - | 0 W/m² | - |
| 1777678255 | 15° C | 69% | 1012.1 hPa | 0 mm | - | 28 W/m² | - |
| 1777677352 | 15.56° C | 68% | 1012 hPa | 0 mm | - | 49 W/m² | - |
| 1777675843 | 15.56° C | 65% | 1012.2 hPa | 0 mm | - | 100 W/m² | - |
| 1777674942 | 16.11° C | 64% | 1012.3 hPa | 0 mm | - | 113 W/m² | - |
| 1777671065 | 17.22° C | 55% | 1012.4 hPa | 0 mm | - | 548 W/m² | - |
| 1777670443 | 17.22° C | 54% | 1012.5 hPa | 0 mm | - | 541 W/m² | - |
| 1777670158 | 17.22° C | 54% | 1012.6 hPa | 0 mm | - | 475 W/m² | - |
| 1777669545 | 17.78° C | 53% | 1012.4 hPa | 0 mm | - | 603 W/m² | - |
| 1777668647 | 17.78° C | 54% | 1012.2 hPa | 0 mm | - | 527 W/m² | - |
| 1777668048 | 17.22° C | 54% | 1012.3 hPa | 0 mm | - | 780 W/m² | - |
| 1777667742 | 17.22° C | 51% | 1012.5 hPa | 0 mm | - | 575 W/m² | - |
| 1777666247 | 17.78° C | 53% | 1012.8 hPa | 0 mm | - | 729 W/m² | - |
| 1777664147 | 17.78° C | 51% | 1013.5 hPa | 0 mm | - | 598 W/m² | - |
| 1777661448 | 19.44° C | 45% | 1014 hPa | 0 mm | - | 454 W/m² | - |
* Rain latest hour (hover to see other rain measurements)
** Current wind speed in m/s (hover to see current wind gust speed)